Time;durP1;ratioP1;P1;durP2;ratioP2;P2;SDS_P1;SDS_P2;PMS_P1;PMS_P2;Temp;Humidity;BMP_temperature;BMP_pressure;BME280_temperature;BME280_humidity;BME280_pressure;Samples;Min_cycle;Max_cycle;Signal;HPM_P1;HPM_P2
2023/07/07 00:02:25;;;;;;;;;7.50;7.00;;;;;12.15;100.00;98808.88;4932988;28;103916;-77
2023/07/07 00:05:03;;;;;;;;;4.25;3.75;;;;;12.22;100.00;98804.28;4929424;28;102150;-77
2023/07/07 00:07:50;;;;;;;;;5.00;5.00;;;;;12.16;100.00;98799.69;4933698;28;103284;-77
2023/07/07 00:10:35;;;;;;;;;6.25;6.00;;;;;12.17;100.00;98806.78;4932897;28;102038;-77
2023/07/07 00:13:30;;;;;;;;;5.00;5.00;;;;;12.14;100.00;98812.63;4931934;28;108639;-77
2023/07/07 00:16:02;;;;;;;;;6.00;5.75;;;;;12.08;100.00;98803.44;4933396;28;103257;-77
2023/07/07 00:18:30;;;;;;;;;4.75;4.25;;;;;12.11;100.00;98814.91;4933721;28;102132;-76
2023/07/07 00:20:59;;;;;;;;;7.25;5.00;;;;;12.07;100.00;98823.44;4935796;28;102109;-77
2023/07/07 00:23:29;;;;;;;;;4.25;4.25;;;;;12.12;100.00;98825.53;4937376;28;104068;-77
2023/07/07 00:26:04;;;;;;;;;6.25;3.50;;;;;12.03;100.00;98807.78;4933687;28;102119;-76
2023/07/07 00:28:32;;;;;;;;;4.75;3.00;;;;;12.11;100.00;98826.59;4933074;28;103433;-76
2023/07/07 00:30:59;;;;;;;;;3.75;3.75;;;;;12.07;100.00;98825.31;4935658;28;102374;-76
2023/07/07 00:33:28;;;;;;;;;5.25;3.75;;;;;12.08;100.00;98817.00;4932288;28;104344;-77
2023/07/07 00:35:55;;;;;;;;;1.75;1.00;;;;;12.18;100.00;98830.16;4933637;28;102548;-77
2023/07/07 00:38:22;;;;;;;;;4.00;3.25;;;;;12.19;100.00;98826.41;4929744;28;102209;-76
2023/07/07 00:40:52;;;;;;;;;4.50;4.00;;;;;12.14;100.00;98818.03;4934451;28;102330;-76
2023/07/07 00:43:21;;;;;;;;;3.00;3.00;;;;;12.18;100.00;98827.44;4930686;28;104319;-76
2023/07/07 00:45:48;;;;;;;;;1.75;1.25;;;;;12.20;100.00;98828.06;4934132;28;102099;-76
2023/07/07 00:48:20;;;;;;;;;1.25;1.25;;;;;12.18;100.00;98838.28;4932575;28;102039;-76
2023/07/07 00:50:51;;;;;;;;;2.50;2.00;;;;;12.05;100.00;98827.41;4931705;28;102106;-78
2023/07/07 00:53:19;;;;;;;;;3.00;3.00;;;;;11.86;100.00;98798.38;4931819;28;108609;-75
2023/07/07 00:55:51;;;;;;;;;3.00;3.00;;;;;12.09;100.00;98839.50;4934649;28;102336;-75
2023/07/07 00:58:22;;;;;;;;;4.50;3.00;;;;;12.09;100.00;98836.78;4922171;28;102379;-76
2023/07/07 01:00:57;;;;;;;;;3.00;3.00;;;;;12.05;100.00;98822.00;4932941;28;102319;-76
2023/07/07 01:03:37;;;;;;;;;1.00;1.00;;;;;12.07;100.00;98838.88;4931712;28;104186;-76
2023/07/07 01:06:22;;;;;;;;;2.50;2.50;;;;;11.98;100.00;98824.66;4931269;28;101968;-76
2023/07/07 01:09:08;;;;;;;;;2.00;2.00;;;;;11.69;100.00;98776.22;4933828;28;103278;-76
2023/07/07 01:11:56;;;;;;;;;3.00;2.00;;;;;12.04;100.00;98831.16;4928203;28;102702;-76
2023/07/07 01:14:43;;;;;;;;;2.50;2.00;;;;;11.91;100.00;98820.28;4930162;28;103054;-76
2023/07/07 01:17:41;;;;;;;;;4.50;4.50;;;;;11.92;100.00;98835.50;4930615;28;101995;-76
2023/07/07 01:20:32;;;;;;;;;3.25;3.00;;;;;11.87;100.00;98835.28;4932970;28;102022;-76
2023/07/07 01:23:20;;;;;;;;;3.00;3.00;;;;;11.79;100.00;98830.03;4934655;28;102471;-76
2023/07/07 01:26:15;;;;;;;;;3.00;3.00;;;;;11.73;100.00;98830.84;4931273;28;109162;-76
2023/07/07 01:29:14;;;;;;;;;4.25;4.00;;;;;11.80;100.00;98827.13;4935834;28;102570;-76
2023/07/07 01:31:57;;;;;;;;;3.00;2.75;;;;;11.81;100.00;98834.22;4930203;28;102142;-76
2023/07/07 01:34:25;;;;;;;;;3.00;3.00;;;;;11.77;100.00;98842.94;4933853;28;102476;-76
2023/07/07 01:36:52;;;;;;;;;3.25;3.00;;;;;11.74;100.00;98843.38;4934034;28;107683;-76
2023/07/07 01:39:19;;;;;;;;;3.75;3.75;;;;;11.73;100.00;98844.38;4934773;28;102467;-76
2023/07/07 01:42:00;;;;;;;;;4.00;4.00;;;;;11.74;100.00;98836.06;4936839;28;103545;-76
2023/07/07 01:45:01;;;;;;;;;3.00;3.00;;;;;11.73;100.00;98841.69;4928487;28;103468;-76
2023/07/07 01:47:38;;;;;;;;;3.25;3.00;;;;;11.58;100.00;98845.34;4930726;28;109247;-76
2023/07/07 01:50:15;;;;;;;;;5.00;4.75;;;;;11.44;100.00;98843.59;4928977;28;102069;-76
2023/07/07 01:52:57;;;;;;;;;6.00;5.25;;;;;11.44;100.00;98842.75;4933240;28;102259;-77
2023/07/07 01:55:28;;;;;;;;;3.75;3.75;;;;;11.44;100.00;98837.34;4932087;28;102376;-76
2023/07/07 01:57:58;;;;;;;;;3.00;3.00;;;;;11.37;100.00;98826.50;4930870;28;104031;-77
2023/07/07 02:00:28;;;;;;;;;5.00;3.50;;;;;11.45;100.00;98837.16;4930125;28;103275;-77
2023/07/07 02:02:57;;;;;;;;;1.00;1.00;;;;;11.42;100.00;98834.00;4932265;28;102022;-76
2023/07/07 02:05:26;;;;;;;;;3.00;2.75;;;;;11.40;100.00;98830.66;4933029;28;102294;-77
2023/07/07 02:07:57;;;;;;;;;2.50;2.00;;;;;11.43;100.00;98833.81;4934180;28;104105;-77
2023/07/07 02:10:24;;;;;;;;;3.00;2.75;;;;;11.36;100.00;98832.94;4930236;28;102584;-76
2023/07/07 02:12:52;;;;;;;;;3.00;3.00;;;;;11.42;100.00;98844.84;4933722;28;102007;-76
2023/07/07 02:15:19;;;;;;;;;2.00;2.00;;;;;11.41;100.00;98849.41;4935950;28;102074;-77
2023/07/07 02:17:47;;;;;;;;;4.00;3.00;;;;;11.44;100.00;98848.16;4933248;28;104101;-77
2023/07/07 02:20:15;;;;;;;;;2.25;2.00;;;;;11.44;100.00;98859.00;4934463;28;102559;-77
2023/07/07 02:22:43;;;;;;;;;4.00;3.00;;;;;11.43;100.00;98847.38;4935648;28;102442;-76
2023/07/07 02:25:10;;;;;;;;;5.25;4.50;;;;;11.39;100.00;98856.91;4936511;28;102366;-76
2023/07/07 02:27:37;;;;;;;;;4.25;4.25;;;;;11.37;100.00;98869.81;4931578;28;104039;-76
2023/07/07 02:30:05;;;;;;;;;4.00;4.00;;;;;11.25;100.00;98848.91;4934946;28;102240;-76
2023/07/07 02:32:32;;;;;;;;;6.00;5.00;;;;;11.23;100.00;98862.66;4934632;28;102047;-76
2023/07/07 02:35:02;;;;;;;;;4.25;4.00;;;;;11.05;100.00;98832.56;4934576;28;102142;-76
2023/07/07 02:37:29;;;;;;;;;3.50;3.50;;;;;11.24;100.00;98861.63;4932690;28;104076;-76
2023/07/07 02:39:56;;;;;;;;;5.50;5.50;;;;;11.22;100.00;98855.56;4933460;28;102302;-76
2023/07/07 02:42:23;;;;;;;;;4.00;3.75;;;;;11.18;100.00;98860.53;4932423;28;103407;-76
2023/07/07 02:44:50;;;;;;;;;9.50;6.75;;;;;11.03;100.00;98856.28;4935612;28;103128;-77
2023/07/07 02:47:17;;;;;;;;;7.00;5.25;;;;;11.05;100.00;98865.84;4934410;28;104207;-77
2023/07/07 02:49:44;;;;;;;;;5.50;5.00;;;;;11.04;100.00;98869.59;4930913;28;102300;-76
2023/07/07 02:52:11;;;;;;;;;7.25;4.50;;;;;11.02;100.00;98868.13;4934719;28;102585;-76
2023/07/07 02:54:38;;;;;;;;;5.00;3.50;;;;;11.05;100.00;98871.28;4936024;28;101984;-76
2023/07/07 02:57:06;;;;;;;;;3.00;2.25;;;;;11.04;100.00;98863.34;4934472;28;104033;-76
2023/07/07 02:59:33;;;;;;;;;3.00;3.00;;;;;11.07;100.00;98862.97;4936401;28;102330;-76
2023/07/07 03:02:00;;;;;;;;;4.00;4.00;;;;;11.06;100.00;98874.81;4934785;28;102084;-76
2023/07/07 03:04:28;;;;;;;;;3.25;3.00;;;;;11.04;100.00;98879.56;4936631;28;102289;-76
2023/07/07 03:06:55;;;;;;;;;3.25;3.25;;;;;11.05;100.00;98873.13;4935156;28;104191;-76
2023/07/07 03:09:22;;;;;;;;;4.00;3.00;;;;;11.08;100.00;98883.56;4934469;28;102128;-76
2023/07/07 03:11:49;;;;;;;;;2.00;2.00;;;;;11.10;100.00;98878.78;4934998;28;102104;-77
2023/07/07 03:14:20;;;;;;;;;2.00;2.00;;;;;11.12;100.00;98874.03;4953783;28;102160;-76
2023/07/07 03:16:51;;;;;;;;;3.00;2.75;;;;;11.16;100.00;98880.72;4934657;28;108874;-76
2023/07/07 03:19:19;;;;;;;;;2.00;1.00;;;;;11.17;100.00;98885.06;4933667;28;102179;-77
2023/07/07 03:21:47;;;;;;;;;2.25;2.00;;;;;11.17;100.00;98890.50;4936533;28;102128;-76
2023/07/07 03:24:15;;;;;;;;;1.75;1.75;;;;;11.14;100.00;98890.91;4940029;28;102186;-76
2023/07/07 03:26:42;;;;;;;;;2.50;2.00;;;;;11.13;100.00;98894.63;4936584;28;108456;-77
2023/07/07 03:29:10;;;;;;;;;3.00;3.00;;;;;11.13;100.00;98900.03;4938297;28;102223;-76
2023/07/07 03:31:37;;;;;;;;;3.75;3.75;;;;;11.18;100.00;98903.00;4935498;28;102389;-76
2023/07/07 03:34:07;;;;;;;;;3.75;3.50;;;;;11.24;100.00;98894.09;4932886;28;102223;-77
2023/07/07 03:36:35;;;;;;;;;5.25;3.25;;;;;11.32;100.00;98899.34;4933224;28;102828;-76
2023/07/07 03:39:03;;;;;;;;;4.00;3.00;;;;;11.30;100.00;98890.56;4930901;28;102073;-76
2023/07/07 03:41:30;;;;;;;;;3.00;2.00;;;;;11.21;100.00;98880.97;4935285;28;103447;-76
2023/07/07 03:43:58;;;;;;;;;8.00;6.00;;;;;11.19;100.00;98883.88;4936295;28;102708;-77
2023/07/07 03:46:28;;;;;;;;;4.00;4.00;;;;;11.30;100.00;98896.00;4932584;28;104242;-77
2023/07/07 03:48:56;;;;;;;;;6.00;5.00;;;;;11.38;100.00;98893.16;4935969;28;103516;-76
2023/07/07 03:51:34;;;;;;;;;4.50;3.25;;;;;11.42;100.00;98894.41;4934087;28;101913;-77
2023/07/07 03:54:27;;;;;;;;;3.00;3.00;;;;;11.23;100.00;98868.06;4934425;28;103041;-77
2023/07/07 03:57:03;;;;;;;;;5.75;5.00;;;;;11.22;100.00;98879.06;4927885;28;107637;-77
2023/07/07 03:59:43;;;;;;;;;4.00;4.00;;;;;11.42;100.00;98907.13;4932649;28;102052;-77
2023/07/07 04:02:15;;;;;;;;;4.75;4.75;;;;;11.47;100.00;98916.31;4932333;28;102797;-77
2023/07/07 04:04:42;;;;;;;;;6.00;5.00;;;;;11.43;100.00;98906.09;4936168;28;102076;-77
2023/07/07 04:07:17;;;;;;;;;12.75;11.75;;;;;11.43;100.00;98900.69;4933736;28;104284;-76
2023/07/07 04:10:03;;;;;;;;;13.00;11.25;;;;;11.53;100.00;98917.38;4931030;28;102820;-77
2023/07/07 04:12:52;;;;;;;;;13.00;11.25;;;;;11.62;100.00;98917.03;4930437;28;103325;-78
2023/07/07 04:15:28;;;;;;;;;11.00;8.00;;;;;11.80;100.00;98926.50;4932424;28;102538;-77
2023/07/07 04:17:55;;;;;;;;;11.25;11.00;;;;;11.85;100.00;98919.47;4933764;28;103971;-77
2023/07/07 04:20:23;;;;;;;;;9.25;9.00;;;;;11.86;100.00;98912.16;4935319;28;102078;-76
2023/07/07 04:22:50;;;;;;;;;11.25;8.50;;;;;11.97;100.00;98920.59;4951418;28;103356;-77
2023/07/07 04:25:18;;;;;;;;;12.75;11.75;;;;;12.05;100.00;98924.97;4938284;28;102323;-76
2023/07/07 04:27:45;;;;;;;;;10.50;10.00;;;;;12.11;100.00;98926.88;4934049;28;110132;-76
2023/07/07 04:30:13;;;;;;;;;10.50;8.00;;;;;12.22;100.00;98930.88;4931187;28;102027;-76
2023/07/07 04:32:40;;;;;;;;;7.00;7.00;;;;;12.38;100.00;98934.03;4934623;28;103700;-76
2023/07/07 04:35:08;;;;;;;;;7.00;6.00;;;;;12.49;100.00;98936.16;4933684;28;103483;-76
2023/07/07 04:37:35;;;;;;;;;6.00;6.00;;;;;12.50;100.00;98908.00;4932781;28;104081;-76
2023/07/07 04:40:03;;;;;;;;;4.00;3.00;;;;;12.66;100.00;98911.34;4936236;28;102094;-76
2023/07/07 04:42:30;;;;;;;;;10.50;9.50;;;;;12.89;100.00;98938.94;4933417;28;102457;-76
2023/07/07 04:44:57;;;;;;;;;14.25;12.25;;;;;12.88;100.00;98929.13;4935273;28;101951;-77
2023/07/07 04:47:24;;;;;;;;;18.75;15.00;;;;;13.12;100.00;98935.84;4935246;28;104054;-77
2023/07/07 04:49:53;;;;;;;;;13.75;13.00;;;;;13.27;100.00;98929.19;4934939;28;102204;-77
2023/07/07 04:52:20;;;;;;;;;12.00;11.00;;;;;13.62;100.00;98937.06;4936790;28;102073;-77
2023/07/07 04:54:49;;;;;;;;;10.25;9.25;;;;;13.95;100.00;98940.53;4935225;28;102322;-76
2023/07/07 04:57:16;;;;;;;;;19.00;15.75;;;;;14.24;100.00;98937.25;4935357;28;108728;-78
2023/07/07 04:59:43;;;;;;;;;17.75;16.25;;;;;14.48;100.00;98933.00;4933549;28;102047;-76
2023/07/07 05:02:10;;;;;;;;;18.50;16.75;;;;;14.80;100.00;98935.72;4933728;28;102157;-76
2023/07/07 05:04:37;;;;;;;;;20.00;19.75;;;;;15.32;100.00;98929.84;4935441;28;102266;-75
2023/07/07 05:07:04;;;;;;;;;15.50;12.50;;;;;15.69;99.77;98927.22;4933762;28;104119;-75
2023/07/07 05:09:32;;;;;;;;;21.25;20.00;;;;;15.71;99.66;98936.88;4937782;28;102086;-75
2023/07/07 05:11:59;;;;;;;;;18.00;17.00;;;;;15.85;99.05;98935.63;4909183;28;102821;-75
2023/07/07 05:14:27;;;;;;;;;19.25;17.75;;;;;15.97;98.15;98941.19;4938621;28;102102;-75
2023/07/07 05:16:54;;;;;;;;;23.00;20.00;;;;;16.49;97.65;98942.41;4932626;28;104250;-75
2023/07/07 05:19:21;;;;;;;;;15.25;14.25;;;;;16.65;96.03;98935.50;4934313;28;103362;-74
2023/07/07 05:21:48;;;;;;;;;28.75;23.75;;;;;17.17;98.87;98936.59;4934004;28;102257;-74
2023/07/07 05:24:15;;;;;;;;;21.25;18.25;;;;;17.27;94.07;98939.56;4937422;28;102305;-75
2023/07/07 05:26:42;;;;;;;;;29.00;27.00;;;;;17.86;95.93;98945.94;4929252;28;104065;-75
2023/07/07 05:29:12;;;;;;;;;30.00;27.75;;;;;18.22;89.42;98942.88;4935370;28;102202;-75
2023/07/07 05:31:40;;;;;;;;;31.75;29.25;;;;;18.37;91.46;98937.72;4935727;28;102051;-75
2023/07/07 05:34:07;;;;;;;;;32.50;28.00;;;;;18.50;86.44;98929.25;4936407;28;102627;-75
2023/07/07 05:36:36;;;;;;;;;26.00;23.00;;;;;18.76;88.78;98927.84;4933659;28;103280;-75
2023/07/07 05:39:06;;;;;;;;;41.75;33.00;;;;;19.34;92.64;98938.44;4930002;28;103646;-75
2023/07/07 05:41:33;;;;;;;;;36.00;32.00;;;;;19.79;85.64;98935.63;4933588;28;102400;-75
2023/07/07 05:44:00;;;;;;;;;29.00;28.00;;;;;20.22;83.52;98936.75;4936350;28;102701;-75
2023/07/07 05:46:27;;;;;;;;;28.50;22.75;;;;;20.46;77.06;98939.00;4934161;28;104088;-76
2023/07/07 05:48:54;;;;;;;;;28.00;23.50;;;;;20.54;77.52;98945.94;4933403;28;102058;-75
2023/07/07 05:51:21;;;;;;;;;17.33;16.67;;;;;19.96;76.58;98910.88;4934794;28;101817;-75
2023/07/07 05:53:49;;;;;;;;;20.00;17.00;;;;;19.80;76.95;98941.94;4933050;28;102695;-78
2023/07/07 05:56:22;;;;;;;;;18.33;18.00;;;;;20.11;77.65;98935.78;4935801;28;108598;-77
2023/07/07 05:58:50;;;;;;;;;22.67;20.67;;;;;20.39;83.90;98943.88;4922553;28;103521;-77
2023/07/07 06:01:17;;;;;;;;;20.50;19.75;;;;;20.84;73.06;98946.31;4935210;28;103160;-76
2023/07/07 06:03:45;;;;;;;;;16.33;14.00;;;;;20.97;72.62;98944.22;4936836;28;102122;-76
2023/07/07 06:06:13;;;;;;;;;15.67;13.00;;;;;21.38;71.38;98946.28;4933305;28;104019;-80
2023/07/07 06:08:40;;;;;;;;;18.00;16.33;;;;;21.14;68.67;98954.06;4935591;28;103394;-78
2023/07/07 06:11:08;;;;;;;;;19.67;19.00;;;;;21.07;75.30;98958.91;4930922;28;103584;-78
2023/07/07 06:13:35;;;;;;;;;16.33;15.33;;;;;21.48;72.28;98951.06;4933623;28;102101;-76
2023/07/07 06:16:03;;;;;;;;;14.00;12.67;;;;;21.41;68.52;98956.75;4935097;28;104003;-75
2023/07/07 06:18:30;;;;;;;;;13.00;12.33;;;;;21.15;70.03;98963.97;4930077;28;102018;-75
2023/07/07 06:20:59;;;;;;;;;9.00;8.67;;;;;21.18;71.70;98963.44;4936384;28;102080;-75
2023/07/07 06:23:29;;;;;;;;;12.00;11.33;;;;;20.85;67.07;98967.19;4938374;28;102512;-75
2023/07/07 06:25:56;;;;;;;;;15.33;14.00;;;;;21.22;69.62;98964.56;4938906;28;104393;-76
2023/07/07 06:28:23;;;;;;;;;5.00;5.00;;;;;21.25;69.26;98966.78;4939375;28;102249;-76
2023/07/07 06:30:51;;;;;;;;;7.33;7.33;;;;;20.96;67.04;98964.56;4939298;28;101942;-76
2023/07/07 06:33:19;;;;;;;;;14.00;11.67;;;;;21.17;69.26;98966.44;4940721;28;102223;-76
2023/07/07 06:35:48;;;;;;;;;9.00;9.00;;;;;21.60;68.76;98971.78;4936790;28;107849;-76
2023/07/07 06:38:15;;;;;;;;;9.00;8.00;;;;;21.42;64.95;98979.59;4940743;28;101907;-76
2023/07/07 06:40:45;;;;;;;;;10.00;8.33;;;;;21.41;65.80;98972.44;4924871;28;101878;-76
2023/07/07 06:43:12;;;;;;;;;21.00;18.67;;;;;21.66;64.72;98983.66;4937365;28;102521;-73
2023/07/07 06:45:39;;;;;;;;;15.67;15.00;;;;;21.47;66.42;98983.25;4936709;28;104196;-74
2023/07/07 06:48:07;;;;;;;;;13.33;13.00;;;;;21.99;66.60;98971.53;4938034;28;101885;-75
2023/07/07 06:50:37;;;;;;;;;13.00;12.67;;;;;22.69;68.57;98973.81;4935050;28;102353;-76
2023/07/07 06:53:05;;;;;;;;;17.33;16.00;;;;;23.05;64.67;98964.56;4938536;28;102935;-77
2023/07/07 06:55:32;;;;;;;;;15.00;15.00;;;;;23.16;67.89;98984.72;4938163;28;104252;-76
2023/07/07 06:57:59;;;;;;;;;14.00;12.33;;;;;22.94;62.33;98965.63;4935379;28;101979;-76
2023/07/07 07:00:26;;;;;;;;;9.33;8.00;;;;;23.30;58.38;98985.84;4938535;28;102111;-77
2023/07/07 07:02:53;;;;;;;;;6.67;6.67;;;;;23.58;58.19;98986.44;4939632;28;102137;-76
2023/07/07 07:05:21;;;;;;;;;11.67;11.00;;;;;23.92;60.17;98971.78;4936737;28;103276;-76
2023/07/07 07:07:49;;;;;;;;;13.00;10.33;;;;;24.08;58.72;98985.56;4938787;28;102042;-78
2023/07/07 07:10:16;;;;;;;;;18.00;16.00;;;;;24.12;58.36;98990.25;4936929;28;102870;-79
2023/07/07 07:12:47;;;;;;;;;12.33;10.67;;;;;23.91;58.67;98980.34;4940111;28;102245;-71
2023/07/07 07:15:14;;;;;;;;;11.00;11.00;;;;;24.13;55.80;98986.41;4935919;28;108896;-72
2023/07/07 07:17:41;;;;;;;;;10.33;8.33;;;;;23.90;59.09;98989.75;4938918;28;102098;-71
2023/07/07 07:20:11;;;;;;;;;10.00;10.00;;;;;23.53;59.54;98990.88;4935839;28;102074;-72
2023/07/07 07:22:38;;;;;;;;;9.00;9.00;;;;;23.97;58.98;98996.63;4938233;28;101958;-72
2023/07/07 07:25:07;;;;;;;;;7.00;6.67;;;;;24.14;57.08;98992.72;4936567;28;104173;-71
2023/07/07 07:27:34;;;;;;;;;12.33;11.00;;;;;24.23;58.60;98996.59;4939169;28;102201;-72
2023/07/07 07:30:01;;;;;;;;;7.00;7.00;;;;;24.27;56.14;98990.25;4935309;28;102132;-72
2023/07/07 07:32:28;;;;;;;;;4.00;4.00;;;;;24.63;54.08;99002.00;4937654;28;102385;-71
2023/07/07 07:34:55;;;;;;;;;10.33;9.00;;;;;24.42;54.88;99000.44;4934858;28;104221;-72
2023/07/07 07:37:22;;;;;;;;;6.00;5.33;;;;;24.37;51.93;99000.44;4939872;28;102529;-71
2023/07/07 07:39:49;;;;;;;;;4.00;4.00;;;;;24.47;52.96;98992.13;4939298;28;103030;-72
2023/07/07 07:42:18;;;;;;;;;11.67;10.00;;;;;23.95;54.77;98993.34;4936108;28;102080;-73
2023/07/07 07:44:45;;;;;;;;;9.33;8.00;;;;;23.98;56.50;98992.78;4938354;28;108692;-73
2023/07/07 07:47:12;;;;;;;;;8.00;6.67;;;;;23.81;56.24;98997.75;4938060;28;102116;-71
2023/07/07 07:49:39;;;;;;;;;5.33;5.33;;;;;24.07;53.52;98995.78;4933089;28;102415;-72
2023/07/07 07:52:06;;;;;;;;;6.00;5.00;;;;;24.16;52.37;98994.16;4940091;28;102402;-71
2023/07/07 07:54:34;;;;;;;;;4.00;4.00;;;;;24.39;48.12;99001.00;4934548;28;104033;-71
2023/07/07 07:57:01;;;;;;;;;2.67;2.67;;;;;24.33;51.64;99000.19;4936928;28;102716;-72
2023/07/07 07:59:28;;;;;;;;;6.33;6.00;;;;;23.99;52.36;98999.13;4931649;28;102296;-72
2023/07/07 08:01:55;;;;;;;;;5.67;5.00;;;;;24.22;49.12;99006.03;4936775;28;102412;-72
2023/07/07 08:04:22;;;;;;;;;4.00;4.00;;;;;24.53;50.03;99002.06;4935687;28;104513;-72
2023/07/07 08:06:52;;;;;;;;;4.33;4.33;;;;;24.68;47.72;99001.97;4933242;28;105163;-72
2023/07/07 08:09:20;;;;;;;;;4.00;4.00;;;;;24.52;42.50;99007.88;4932683;28;103382;-73
2023/07/07 08:11:47;;;;;;;;;2.00;2.00;;;;;24.36;42.61;99009.88;4938758;28;102060;-73
2023/07/07 08:14:27;;;;;;;;;2.00;2.00;;;;;24.13;41.99;99004.91;4936996;28;104323;-74
2023/07/07 08:16:54;;;;;;;;;2.00;2.00;;;;;24.14;44.19;99003.78;4931584;28;102079;-73
2023/07/07 08:19:21;;;;;;;;;1.00;1.00;;;;;24.12;44.51;99008.78;4937862;28;102047;-73
2023/07/07 08:21:48;;;;;;;;;0.33;0.33;;;;;23.75;45.37;98993.34;4936095;28;102713;-73
2023/07/07 08:24:16;;;;;;;;;3.67;3.00;;;;;23.76;49.88;99008.81;4936718;28;108590;-73
2023/07/07 08:26:46;;;;;;;;;1.00;1.00;;;;;23.39;45.83;99010.97;4937436;28;102291;-73
2023/07/07 08:29:13;;;;;;;;;2.00;2.00;;;;;23.44;50.63;99003.56;4937584;28;102327;-73
2023/07/07 08:31:43;;;;;;;;;0.00;0.00;;;;;23.73;46.59;99005.78;4936514;28;102681;-73
2023/07/07 08:34:10;;;;;;;;;2.00;2.00;;;;;23.72;44.27;99002.19;4935652;28;103999;-72
2023/07/07 08:36:37;;;;;;;;;2.00;2.00;;;;;24.13;46.71;98999.38;4933926;28;102856;-72
2023/07/07 08:39:16;;;;;;;;;2.00;1.33;;;;;24.19;47.30;99012.09;4936664;28;103482;-71
2023/07/07 08:41:52;;;;;;;;;1.33;1.33;;;;;24.34;42.73;99006.53;4937858;28;101988;-72
2023/07/07 08:44:23;;;;;;;;;3.00;3.00;;;;;24.43;41.09;99007.63;4930697;28;108568;-72
2023/07/07 08:47:25;;;;;;;;;2.00;2.00;;;;;24.40;41.80;99014.56;4931471;28;102754;-71
2023/07/07 08:49:55;;;;;;;;;2.00;2.00;;;;;24.58;40.73;99006.75;4937187;28;102577;-72
2023/07/07 08:52:29;;;;;;;;;2.00;2.00;;;;;24.68;39.25;98988.16;4937309;28;102319;-71
2023/07/07 08:54:56;;;;;;;;;4.67;4.00;;;;;24.97;41.66;99017.94;4934876;28;104003;-71
2023/07/07 08:57:28;;;;;;;;;2.00;2.00;;;;;25.23;40.48;99020.28;4934086;28;102484;-71
2023/07/07 09:00:10;;;;;;;;;1.00;1.00;;;;;25.24;40.58;98987.88;4936118;28;102125;-72
2023/07/07 09:02:59;;;;;;;;;2.00;2.00;;;;;25.23;38.02;99013.91;4935666;28;101990;-71
2023/07/07 09:05:29;;;;;;;;;3.33;3.00;;;;;25.11;40.02;99021.75;4934226;28;108628;-71
2023/07/07 09:08:14;;;;;;;;;5.33;4.67;;;;;25.00;39.98;99023.72;4937308;28;102005;-71
2023/07/07 09:11:01;;;;;;;;;2.67;2.00;;;;;25.35;41.38;99024.66;4930860;28;102123;-72
2023/07/07 09:13:34;;;;;;;;;3.00;3.00;;;;;25.46;41.37;99026.22;4931704;28;102136;-73
2023/07/07 09:16:14;;;;;;;;;2.00;1.00;;;;;25.52;39.74;99006.53;4934066;28;104244;-72
2023/07/07 09:18:51;;;;;;;;;3.33;3.33;;;;;25.66;39.94;99020.56;4928800;28;104675;-72
2023/07/07 09:21:40;;;;;;;;;3.00;2.33;;;;;25.82;39.48;99016.56;4936332;28;102008;-72
2023/07/07 09:24:32;;;;;;;;;3.00;3.00;;;;;25.66;39.97;99012.28;4935129;28;102439;-72
2023/07/07 09:27:18;;;;;;;;;2.33;2.33;;;;;26.10;40.56;99012.16;4932845;28;108411;-72
2023/07/07 09:29:45;;;;;;;;;2.33;2.33;;;;;25.84;42.09;98999.66;4935311;28;102935;-72
2023/07/07 09:32:21;;;;;;;;;4.67;4.00;;;;;25.29;40.90;99021.06;4936401;28;102322;-72
2023/07/07 09:34:48;;;;;;;;;4.67;3.67;;;;;24.85;40.92;99019.09;4933217;28;102351;-72
2023/07/07 09:37:29;;;;;;;;;5.33;3.00;;;;;24.63;41.75;99013.06;4935234;28;108805;-71
2023/07/07 09:40:14;;;;;;;;;2.67;2.67;;;;;24.53;43.04;99024.19;4931526;28;102430;-72
2023/07/07 09:42:58;;;;;;;;;3.00;3.00;;;;;24.49;43.06;99023.09;4931613;28;102801;-72
2023/07/07 09:45:47;;;;;;;;;2.00;2.00;;;;;24.13;41.74;99018.72;4930941;28;102030;-73
2023/07/07 09:48:50;;;;;;;;;2.67;2.67;;;;;23.88;42.71;99028.69;4929781;28;104275;-72
2023/07/07 09:51:41;;;;;;;;;3.33;3.33;;;;;23.78;45.61;99022.31;4932915;28;101968;-72
2023/07/07 09:54:15;;;;;;;;;2.00;2.00;;;;;23.83;46.55;99028.69;4933378;28;102115;-72
2023/07/07 09:56:52;;;;;;;;;1.33;1.33;;;;;24.27;46.19;99023.41;4936739;28;102210;-72
2023/07/07 09:59:41;;;;;;;;;2.00;2.00;;;;;24.57;44.95;99025.28;4942374;28;108817;-72
2023/07/07 10:02:23;;;;;;;;;1.00;1.00;;;;;25.05;42.20;99017.34;4933231;28;101846;-72
2023/07/07 10:05:03;;;;;;;;;1.00;1.00;;;;;25.24;42.51;98993.44;4933912;28;101995;-72
2023/07/07 10:07:38;;;;;;;;;2.00;2.00;;;;;25.51;39.24;99015.13;4935659;28;103153;-72
2023/07/07 10:10:07;;;;;;;;;2.00;2.00;;;;;25.15;39.88;99033.91;4932674;28;104163;-72
2023/07/07 10:12:34;;;;;;;;;3.00;3.00;;;;;24.71;42.84;99031.88;4931273;28;102461;-72
2023/07/07 10:15:26;;;;;;;;;3.33;2.00;;;;;24.69;42.82;99036.00;4934538;28;102614;-71
2023/07/07 10:18:00;;;;;;;;;2.00;2.00;;;;;24.43;40.48;99032.50;4922590;28;103412;-71
2023/07/07 10:20:27;;;;;;;;;2.00;2.00;;;;;24.26;42.32;99027.31;4932614;28;104031;-73
2023/07/07 10:22:54;;;;;;;;;2.00;2.00;;;;;24.37;43.99;99022.56;4933880;28;102189;-72
2023/07/07 10:25:21;;;;;;;;;2.00;2.00;;;;;24.30;42.50;99031.16;4934385;28;102166;-72
2023/07/07 10:27:52;;;;;;;;;3.67;3.00;;;;;24.23;41.79;99032.53;4935972;28;102074;-73
2023/07/07 10:30:20;;;;;;;;;3.00;3.00;;;;;24.26;42.05;99026.47;4935163;28;108697;-72
2023/07/07 10:32:51;;;;;;;;;2.00;2.00;;;;;24.61;42.05;99033.81;4929635;28;103132;-73
2023/07/07 10:35:20;;;;;;;;;3.00;3.00;;;;;24.84;42.17;99027.66;4936282;28;102343;-72
2023/07/07 10:37:47;;;;;;;;;3.00;2.67;;;;;25.18;42.47;99027.78;4935630;28;102414;-71
2023/07/07 10:40:24;;;;;;;;;3.33;2.33;;;;;25.34;40.25;99018.28;4930645;28;104097;-72
2023/07/07 10:42:56;;;;;;;;;3.00;3.00;;;;;25.46;41.13;99020.69;4927822;28;103907;-71
2023/07/07 10:45:24;;;;;;;;;4.00;3.33;;;;;25.41;37.50;99021.53;4934185;28;102014;-71
2023/07/07 10:47:51;;;;;;;;;3.00;3.00;;;;;24.99;34.63;99007.44;4933527;28;103269;-72
2023/07/07 10:50:21;;;;;;;;;4.00;3.00;;;;;25.28;37.91;99011.13;4934806;28;109117;-72
2023/07/07 10:53:27;;;;;;;;;4.00;3.00;;;;;25.60;37.79;99019.78;4934707;28;101954;-71
2023/07/07 10:56:14;;;;;;;;;1.00;1.00;;;;;25.66;38.36;99026.94;4929535;28;102771;-72
2023/07/07 10:59:10;;;;;;;;;1.00;1.00;;;;;25.64;38.42;99018.09;4935536;28;102644;-72
2023/07/07 11:01:48;;;;;;;;;1.67;1.67;;;;;25.30;39.06;99014.44;4928587;28;108568;-72
2023/07/07 11:04:34;;;;;;;;;2.00;2.00;;;;;24.97;43.14;99017.94;4935605;28;102319;-72
2023/07/07 11:07:04;;;;;;;;;2.00;2.00;;;;;24.86;43.97;99011.63;4937468;28;103357;-71
2023/07/07 11:09:41;;;;;;;;;1.00;1.00;;;;;24.75;40.89;99018.28;4935883;28;104568;-71
2023/07/07 11:12:31;;;;;;;;;1.00;1.00;;;;;24.45;40.27;99013.72;4932038;28;104010;-72
2023/07/07 11:15:27;;;;;;;;;1.00;1.00;;;;;24.46;40.62;99018.09;4930720;28;102403;-72
2023/07/07 11:18:31;;;;;;;;;2.00;2.00;;;;;24.40;39.55;99013.72;4934073;28;101922;-72
2023/07/07 11:21:13;;;;;;;;;2.00;2.00;;;;;24.09;39.14;99012.91;4935065;28;102243;-73
2023/07/07 11:23:59;;;;;;;;;3.00;2.00;;;;;24.12;39.61;99022.59;4934120;28;104034;-72
2023/07/07 11:26:35;;;;;;;;;2.00;2.00;;;;;24.16;40.81;99023.72;4934108;28;102386;-71
2023/07/07 11:29:30;;;;;;;;;3.00;2.00;;;;;24.21;40.73;99015.41;4932024;28;103299;-72
2023/07/07 11:32:22;;;;;;;;;1.00;1.00;;;;;24.31;40.47;99015.41;4934733;28;102437;-72
2023/07/07 11:35:11;;;;;;;;;1.00;1.00;;;;;24.31;39.63;99019.00;4931256;28;107934;-72
2023/07/07 11:38:10;;;;;;;;;1.00;1.00;;;;;24.36;39.08;99010.66;4932695;28;103793;-72
2023/07/07 11:40:49;;;;;;;;;1.00;1.00;;;;;24.51;41.92;99007.03;4931137;28;102249;-72
2023/07/07 11:43:32;;;;;;;;;1.00;1.00;;;;;24.61;40.77;99000.66;4938933;28;102345;-72